sensor_id;sensor_type;location;lat;lon;timestamp;P1;durP1;ratioP1;P2;durP2;ratioP2
36259;SDS011;22296;50.824;5.644;2023-03-01T00:00:04;2.92;;;2.28;;
36259;SDS011;22296;50.824;5.644;2023-03-01T00:02:36;3.28;;;2.30;;
36259;SDS011;22296;50.824;5.644;2023-03-01T00:05:03;2.92;;;2.53;;
36259;SDS011;22296;50.824;5.644;2023-03-01T00:07:31;3.72;;;2.28;;
36259;SDS011;22296;50.824;5.644;2023-03-01T00:09:57;2.95;;;2.03;;
36259;SDS011;22296;50.824;5.644;2023-03-01T00:12:24;2.70;;;2.30;;
36259;SDS011;22296;50.824;5.644;2023-03-01T00:14:51;3.40;;;2.58;;
36259;SDS011;22296;50.824;5.644;2023-03-01T00:17:18;3.58;;;2.63;;
36259;SDS011;22296;50.824;5.644;2023-03-01T00:19:44;3.70;;;2.35;;
36259;SDS011;22296;50.824;5.644;2023-03-01T00:22:11;3.28;;;2.42;;
36259;SDS011;22296;50.824;5.644;2023-03-01T00:24:38;3.20;;;2.20;;
36259;SDS011;22296;50.824;5.644;2023-03-01T00:27:04;2.42;;;2.20;;
36259;SDS011;22296;50.824;5.644;2023-03-01T00:29:31;3.53;;;2.50;;
36259;SDS011;22296;50.824;5.644;2023-03-01T00:31:59;2.67;;;1.98;;
36259;SDS011;22296;50.824;5.644;2023-03-01T00:34:25;3.58;;;2.58;;
36259;SDS011;22296;50.824;5.644;2023-03-01T00:36:53;4.57;;;2.40;;
36259;SDS011;22296;50.824;5.644;2023-03-01T00:39:20;3.30;;;2.40;;
36259;SDS011;22296;50.824;5.644;2023-03-01T00:41:47;3.72;;;2.22;;
36259;SDS011;22296;50.824;5.644;2023-03-01T00:44:13;3.05;;;2.42;;
36259;SDS011;22296;50.824;5.644;2023-03-01T00:46:40;5.30;;;2.60;;
36259;SDS011;22296;50.824;5.644;2023-03-01T00:49:07;4.28;;;2.58;;
36259;SDS011;22296;50.824;5.644;2023-03-01T00:51:34;3.47;;;2.30;;
36259;SDS011;22296;50.824;5.644;2023-03-01T00:54:01;3.13;;;2.42;;
36259;SDS011;22296;50.824;5.644;2023-03-01T00:56:29;3.33;;;2.30;;
36259;SDS011;22296;50.824;5.644;2023-03-01T00:58:57;3.55;;;2.60;;
36259;SDS011;22296;50.824;5.644;2023-03-01T01:01:25;3.20;;;2.60;;
36259;SDS011;22296;50.824;5.644;2023-03-01T01:04:01;3.00;;;2.58;;
36259;SDS011;22296;50.824;5.644;2023-03-01T01:06:40;5.13;;;2.80;;
36259;SDS011;22296;50.824;5.644;2023-03-01T01:09:12;3.42;;;2.53;;
36259;SDS011;22296;50.824;5.644;2023-03-01T01:11:45;3.47;;;2.38;;
36259;SDS011;22296;50.824;5.644;2023-03-01T01:14:13;3.97;;;2.22;;
36259;SDS011;22296;50.824;5.644;2023-03-01T01:16:40;5.03;;;2.65;;
36259;SDS011;22296;50.824;5.644;2023-03-01T01:19:07;3.95;;;2.25;;
36259;SDS011;22296;50.824;5.644;2023-03-01T01:21:35;4.40;;;2.63;;
36259;SDS011;22296;50.824;5.644;2023-03-01T01:24:03;2.97;;;2.40;;
36259;SDS011;22296;50.824;5.644;2023-03-01T01:26:31;3.10;;;2.80;;
36259;SDS011;22296;50.824;5.644;2023-03-01T01:29:00;4.53;;;2.70;;
36259;SDS011;22296;50.824;5.644;2023-03-01T01:31:29;5.03;;;2.85;;
36259;SDS011;22296;50.824;5.644;2023-03-01T01:33:57;2.85;;;2.30;;
36259;SDS011;22296;50.824;5.644;2023-03-01T01:36:25;3.15;;;2.60;;
36259;SDS011;22296;50.824;5.644;2023-03-01T01:38:51;2.90;;;2.25;;
36259;SDS011;22296;50.824;5.644;2023-03-01T01:41:19;3.80;;;2.47;;
36259;SDS011;22296;50.824;5.644;2023-03-01T01:43:47;3.63;;;2.72;;
36259;SDS011;22296;50.824;5.644;2023-03-01T01:46:27;4.20;;;2.80;;
36259;SDS011;22296;50.824;5.644;2023-03-01T01:49:00;3.55;;;2.92;;
36259;SDS011;22296;50.824;5.644;2023-03-01T01:51:35;5.93;;;3.50;;
36259;SDS011;22296;50.824;5.644;2023-03-01T01:54:16;2.92;;;2.50;;
36259;SDS011;22296;50.824;5.644;2023-03-01T01:56:51;5.13;;;2.92;;
36259;SDS011;22296;50.824;5.644;2023-03-01T01:59:23;5.15;;;2.67;;
36259;SDS011;22296;50.824;5.644;2023-03-01T02:01:51;2.88;;;2.30;;
36259;SDS011;22296;50.824;5.644;2023-03-01T02:04:19;3.30;;;2.60;;
36259;SDS011;22296;50.824;5.644;2023-03-01T02:07:03;3.05;;;2.70;;
36259;SDS011;22296;50.824;5.644;2023-03-01T02:09:36;4.50;;;2.65;;
36259;SDS011;22296;50.824;5.644;2023-03-01T02:12:03;3.10;;;2.47;;
36259;SDS011;22296;50.824;5.644;2023-03-01T02:14:32;3.63;;;2.92;;
36259;SDS011;22296;50.824;5.644;2023-03-01T02:16:59;2.95;;;2.45;;
36259;SDS011;22296;50.824;5.644;2023-03-01T02:19:29;3.83;;;2.83;;
36259;SDS011;22296;50.824;5.644;2023-03-01T02:27:57;4.20;;;2.85;;
36259;SDS011;22296;50.824;5.644;2023-03-01T02:30:29;3.33;;;2.63;;
36259;SDS011;22296;50.824;5.644;2023-03-01T02:32:59;2.88;;;2.45;;
36259;SDS011;22296;50.824;5.644;2023-03-01T02:35:32;3.40;;;2.70;;
36259;SDS011;22296;50.824;5.644;2023-03-01T02:38:03;3.00;;;2.47;;
36259;SDS011;22296;50.824;5.644;2023-03-01T02:40:34;3.92;;;2.88;;
36259;SDS011;22296;50.824;5.644;2023-03-01T02:43:04;6.13;;;3.55;;
36259;SDS011;22296;50.824;5.644;2023-03-01T02:45:34;3.28;;;2.63;;
36259;SDS011;22296;50.824;5.644;2023-03-01T02:48:02;2.78;;;2.47;;
36259;SDS011;22296;50.824;5.644;2023-03-01T02:52:57;2.50;;;2.30;;
36259;SDS011;22296;50.824;5.644;2023-03-01T02:55:31;2.90;;;2.55;;
36259;SDS011;22296;50.824;5.644;2023-03-01T02:57:58;2.72;;;2.33;;
36259;SDS011;22296;50.824;5.644;2023-03-01T03:00:39;3.20;;;2.70;;
36259;SDS011;22296;50.824;5.644;2023-03-01T03:03:13;3.13;;;2.53;;
36259;SDS011;22296;50.824;5.644;2023-03-01T03:05:43;7.43;;;2.92;;
36259;SDS011;22296;50.824;5.644;2023-03-01T03:08:10;4.57;;;2.50;;
36259;SDS011;22296;50.824;5.644;2023-03-01T03:10:39;3.83;;;2.90;;
36259;SDS011;22296;50.824;5.644;2023-03-01T03:13:11;3.38;;;2.63;;
36259;SDS011;22296;50.824;5.644;2023-03-01T03:15:41;4.43;;;2.70;;
36259;SDS011;22296;50.824;5.644;2023-03-01T03:18:09;3.88;;;3.30;;
36259;SDS011;22296;50.824;5.644;2023-03-01T03:20:38;4.63;;;2.97;;
36259;SDS011;22296;50.824;5.644;2023-03-01T03:23:06;3.83;;;2.60;;
36259;SDS011;22296;50.824;5.644;2023-03-01T03:25:33;3.00;;;2.70;;
36259;SDS011;22296;50.824;5.644;2023-03-01T03:28:04;3.67;;;3.03;;
36259;SDS011;22296;50.824;5.644;2023-03-01T03:30:37;4.75;;;2.97;;
36259;SDS011;22296;50.824;5.644;2023-03-01T03:33:05;3.33;;;2.65;;
36259;SDS011;22296;50.824;5.644;2023-03-01T03:35:37;3.47;;;2.92;;
36259;SDS011;22296;50.824;5.644;2023-03-01T03:38:10;3.17;;;2.28;;
36259;SDS011;22296;50.824;5.644;2023-03-01T03:40:49;4.05;;;2.35;;
36259;SDS011;22296;50.824;5.644;2023-03-01T03:43:19;3.03;;;2.63;;
36259;SDS011;22296;50.824;5.644;2023-03-01T03:45:48;2.72;;;2.35;;
36259;SDS011;22296;50.824;5.644;2023-03-01T03:48:16;4.10;;;2.93;;
36259;SDS011;22296;50.824;5.644;2023-03-01T03:50:48;3.97;;;2.75;;
36259;SDS011;22296;50.824;5.644;2023-03-01T03:53:17;3.90;;;2.75;;
36259;SDS011;22296;50.824;5.644;2023-03-01T03:55:44;3.30;;;2.83;;
36259;SDS011;22296;50.824;5.644;2023-03-01T03:58:15;3.40;;;2.70;;
36259;SDS011;22296;50.824;5.644;2023-03-01T04:00:44;3.08;;;2.70;;
36259;SDS011;22296;50.824;5.644;2023-03-01T04:03:13;4.95;;;2.80;;
36259;SDS011;22296;50.824;5.644;2023-03-01T04:05:41;3.72;;;2.95;;
36259;SDS011;22296;50.824;5.644;2023-03-01T04:08:08;2.67;;;2.47;;
36259;SDS011;22296;50.824;5.644;2023-03-01T04:10:42;4.13;;;2.85;;
36259;SDS011;22296;50.824;5.644;2023-03-01T04:13:12;4.22;;;2.90;;
36259;SDS011;22296;50.824;5.644;2023-03-01T04:18:08;3.28;;;2.80;;
36259;SDS011;22296;50.824;5.644;2023-03-01T04:20:36;3.50;;;2.95;;
36259;SDS011;22296;50.824;5.644;2023-03-01T04:23:13;4.72;;;2.80;;
36259;SDS011;22296;50.824;5.644;2023-03-01T04:25:45;4.65;;;2.90;;
36259;SDS011;22296;50.824;5.644;2023-03-01T04:28:12;3.42;;;2.85;;
36259;SDS011;22296;50.824;5.644;2023-03-01T04:30:39;4.03;;;2.78;;
36259;SDS011;22296;50.824;5.644;2023-03-01T04:33:06;3.55;;;2.40;;
36259;SDS011;22296;50.824;5.644;2023-03-01T04:35:34;4.15;;;2.67;;
36259;SDS011;22296;50.824;5.644;2023-03-01T04:38:03;3.25;;;2.78;;
36259;SDS011;22296;50.824;5.644;2023-03-01T04:40:30;4.32;;;2.83;;
36259;SDS011;22296;50.824;5.644;2023-03-01T04:42:57;3.45;;;3.08;;
36259;SDS011;22296;50.824;5.644;2023-03-01T04:45:24;3.10;;;2.78;;
36259;SDS011;22296;50.824;5.644;2023-03-01T04:47:51;3.55;;;2.90;;
36259;SDS011;22296;50.824;5.644;2023-03-01T04:50:18;4.55;;;3.42;;
36259;SDS011;22296;50.824;5.644;2023-03-01T04:52:49;4.97;;;3.15;;
36259;SDS011;22296;50.824;5.644;2023-03-01T04:55:16;3.65;;;3.10;;
36259;SDS011;22296;50.824;5.644;2023-03-01T04:57:43;3.30;;;3.00;;
36259;SDS011;22296;50.824;5.644;2023-03-01T05:00:11;5.93;;;2.72;;
36259;SDS011;22296;50.824;5.644;2023-03-01T05:02:52;5.30;;;3.20;;
36259;SDS011;22296;50.824;5.644;2023-03-01T05:05:25;3.50;;;3.20;;
36259;SDS011;22296;50.824;5.644;2023-03-01T05:08:00;3.67;;;3.30;;
36259;SDS011;22296;50.824;5.644;2023-03-01T05:10:29;5.00;;;3.40;;
36259;SDS011;22296;50.824;5.644;2023-03-01T05:12:57;3.85;;;3.20;;
36259;SDS011;22296;50.824;5.644;2023-03-01T05:15:25;3.88;;;3.30;;
36259;SDS011;22296;50.824;5.644;2023-03-01T05:17:54;3.65;;;3.30;;
36259;SDS011;22296;50.824;5.644;2023-03-01T05:20:28;3.42;;;3.13;;
36259;SDS011;22296;50.824;5.644;2023-03-01T05:22:57;5.28;;;3.15;;
36259;SDS011;22296;50.824;5.644;2023-03-01T05:25:26;3.65;;;3.15;;
36259;SDS011;22296;50.824;5.644;2023-03-01T05:27:53;4.50;;;3.33;;
36259;SDS011;22296;50.824;5.644;2023-03-01T05:30:20;4.32;;;3.55;;
36259;SDS011;22296;50.824;5.644;2023-03-01T05:32:48;4.13;;;3.72;;
36259;SDS011;22296;50.824;5.644;2023-03-01T05:35:16;5.40;;;3.50;;
36259;SDS011;22296;50.824;5.644;2023-03-01T05:37:44;4.53;;;3.42;;
36259;SDS011;22296;50.824;5.644;2023-03-01T05:40:17;8.30;;;3.92;;
36259;SDS011;22296;50.824;5.644;2023-03-01T05:42:49;4.22;;;3.22;;
36259;SDS011;22296;50.824;5.644;2023-03-01T05:45:21;5.63;;;3.20;;
36259;SDS011;22296;50.824;5.644;2023-03-01T05:47:49;6.53;;;4.07;;
36259;SDS011;22296;50.824;5.644;2023-03-01T05:50:20;4.50;;;3.58;;
36259;SDS011;22296;50.824;5.644;2023-03-01T05:52:56;3.42;;;3.10;;
36259;SDS011;22296;50.824;5.644;2023-03-01T05:55:28;3.72;;;3.15;;
36259;SDS011;22296;50.824;5.644;2023-03-01T05:57:58;4.68;;;3.40;;
36259;SDS011;22296;50.824;5.644;2023-03-01T06:00:29;4.65;;;3.63;;
36259;SDS011;22296;50.824;5.644;2023-03-01T06:02:57;5.18;;;4.05;;
36259;SDS011;22296;50.824;5.644;2023-03-01T06:05:25;4.13;;;3.65;;
36259;SDS011;22296;50.824;5.644;2023-03-01T06:07:53;12.23;;;4.03;;
36259;SDS011;22296;50.824;5.644;2023-03-01T06:10:21;3.90;;;3.42;;
36259;SDS011;22296;50.824;5.644;2023-03-01T06:12:48;4.22;;;3.40;;
36259;SDS011;22296;50.824;5.644;2023-03-01T06:15:15;4.95;;;3.67;;
36259;SDS011;22296;50.824;5.644;2023-03-01T06:17:43;5.80;;;3.63;;
36259;SDS011;22296;50.824;5.644;2023-03-01T06:20:13;4.72;;;3.60;;
36259;SDS011;22296;50.824;5.644;2023-03-01T06:22:45;5.00;;;3.55;;
36259;SDS011;22296;50.824;5.644;2023-03-01T06:25:13;5.07;;;3.45;;
36259;SDS011;22296;50.824;5.644;2023-03-01T06:27:41;4.57;;;3.55;;
36259;SDS011;22296;50.824;5.644;2023-03-01T06:30:09;5.90;;;3.90;;
36259;SDS011;22296;50.824;5.644;2023-03-01T06:32:38;4.70;;;3.42;;
36259;SDS011;22296;50.824;5.644;2023-03-01T06:35:11;4.18;;;3.50;;
36259;SDS011;22296;50.824;5.644;2023-03-01T06:37:40;4.60;;;3.50;;
36259;SDS011;22296;50.824;5.644;2023-03-01T06:40:08;4.68;;;3.30;;
36259;SDS011;22296;50.824;5.644;2023-03-01T06:42:38;4.50;;;4.00;;
36259;SDS011;22296;50.824;5.644;2023-03-01T06:45:06;7.37;;;4.00;;
36259;SDS011;22296;50.824;5.644;2023-03-01T06:47:34;5.18;;;3.63;;
36259;SDS011;22296;50.824;5.644;2023-03-01T06:50:01;4.43;;;3.72;;
36259;SDS011;22296;50.824;5.644;2023-03-01T06:52:29;5.55;;;4.30;;
36259;SDS011;22296;50.824;5.644;2023-03-01T06:54:56;5.68;;;3.83;;
36259;SDS011;22296;50.824;5.644;2023-03-01T06:57:22;5.53;;;4.10;;
36259;SDS011;22296;50.824;5.644;2023-03-01T06:59:49;7.07;;;4.68;;
36259;SDS011;22296;50.824;5.644;2023-03-01T07:02:16;7.25;;;4.15;;
36259;SDS011;22296;50.824;5.644;2023-03-01T07:04:43;6.70;;;4.40;;
36259;SDS011;22296;50.824;5.644;2023-03-01T07:07:10;5.50;;;4.03;;
36259;SDS011;22296;50.824;5.644;2023-03-01T07:09:37;4.97;;;3.83;;
36259;SDS011;22296;50.824;5.644;2023-03-01T07:12:04;5.10;;;4.15;;
36259;SDS011;22296;50.824;5.644;2023-03-01T07:14:31;5.40;;;3.95;;
36259;SDS011;22296;50.824;5.644;2023-03-01T07:16:57;5.35;;;4.07;;
36259;SDS011;22296;50.824;5.644;2023-03-01T07:19:24;5.10;;;4.30;;
36259;SDS011;22296;50.824;5.644;2023-03-01T07:21:51;4.70;;;4.20;;
36259;SDS011;22296;50.824;5.644;2023-03-01T07:24:18;4.47;;;3.70;;
36259;SDS011;22296;50.824;5.644;2023-03-01T07:26:48;5.15;;;4.10;;
36259;SDS011;22296;50.824;5.644;2023-03-01T07:29:18;5.18;;;4.43;;
36259;SDS011;22296;50.824;5.644;2023-03-01T07:31:45;4.57;;;3.90;;
36259;SDS011;22296;50.824;5.644;2023-03-01T07:34:12;5.47;;;4.32;;
36259;SDS011;22296;50.824;5.644;2023-03-01T07:36:39;6.15;;;4.25;;
36259;SDS011;22296;50.824;5.644;2023-03-01T07:39:10;5.97;;;4.20;;
36259;SDS011;22296;50.824;5.644;2023-03-01T07:41:37;5.80;;;4.60;;
36259;SDS011;22296;50.824;5.644;2023-03-01T07:44:04;5.78;;;4.55;;
36259;SDS011;22296;50.824;5.644;2023-03-01T07:46:31;5.68;;;4.13;;
36259;SDS011;22296;50.824;5.644;2023-03-01T07:48:58;6.35;;;4.95;;
36259;SDS011;22296;50.824;5.644;2023-03-01T07:51:25;5.63;;;4.90;;
36259;SDS011;22296;50.824;5.644;2023-03-01T07:53:51;7.18;;;4.72;;
36259;SDS011;22296;50.824;5.644;2023-03-01T07:56:18;6.22;;;4.65;;
36259;SDS011;22296;50.824;5.644;2023-03-01T07:58:45;6.30;;;4.95;;
36259;SDS011;22296;50.824;5.644;2023-03-01T08:01:15;6.03;;;4.45;;
36259;SDS011;22296;50.824;5.644;2023-03-01T08:03:44;7.03;;;5.25;;
36259;SDS011;22296;50.824;5.644;2023-03-01T08:06:12;5.32;;;4.70;;
36259;SDS011;22296;50.824;5.644;2023-03-01T08:08:40;5.47;;;4.88;;
36259;SDS011;22296;50.824;5.644;2023-03-01T08:11:07;6.45;;;5.07;;
36259;SDS011;22296;50.824;5.644;2023-03-01T08:13:36;6.10;;;4.70;;
36259;SDS011;22296;50.824;5.644;2023-03-01T08:16:08;6.63;;;5.07;;
36259;SDS011;22296;50.824;5.644;2023-03-01T08:18:38;8.20;;;5.43;;
36259;SDS011;22296;50.824;5.644;2023-03-01T08:21:06;8.13;;;5.60;;
36259;SDS011;22296;50.824;5.644;2023-03-01T08:23:35;9.82;;;6.38;;
36259;SDS011;22296;50.824;5.644;2023-03-01T08:26:04;8.35;;;6.57;;
36259;SDS011;22296;50.824;5.644;2023-03-01T08:28:37;10.45;;;6.97;;
36259;SDS011;22296;50.824;5.644;2023-03-01T08:31:26;10.73;;;7.68;;
36259;SDS011;22296;50.824;5.644;2023-03-01T08:33:59;14.13;;;8.10;;
36259;SDS011;22296;50.824;5.644;2023-03-01T08:36:31;12.07;;;6.95;;
36259;SDS011;22296;50.824;5.644;2023-03-01T08:39:00;16.15;;;9.05;;
36259;SDS011;22296;50.824;5.644;2023-03-01T08:41:26;12.88;;;7.57;;
36259;SDS011;22296;50.824;5.644;2023-03-01T08:43:54;15.68;;;8.40;;
36259;SDS011;22296;50.824;5.644;2023-03-01T08:46:29;11.50;;;7.88;;
36259;SDS011;22296;50.824;5.644;2023-03-01T08:49:02;13.65;;;7.88;;
36259;SDS011;22296;50.824;5.644;2023-03-01T08:51:31;14.40;;;8.25;;
36259;SDS011;22296;50.824;5.644;2023-03-01T08:54:03;13.90;;;8.23;;
36259;SDS011;22296;50.824;5.644;2023-03-01T08:56:32;13.57;;;8.00;;
36259;SDS011;22296;50.824;5.644;2023-03-01T08:58:59;11.32;;;8.30;;
36259;SDS011;22296;50.824;5.644;2023-03-01T09:01:26;12.90;;;8.13;;
36259;SDS011;22296;50.824;5.644;2023-03-01T09:03:53;14.73;;;8.63;;
36259;SDS011;22296;50.824;5.644;2023-03-01T09:06:19;12.45;;;7.78;;
36259;SDS011;22296;50.824;5.644;2023-03-01T09:08:47;13.60;;;8.13;;
36259;SDS011;22296;50.824;5.644;2023-03-01T09:11:16;12.23;;;7.85;;
36259;SDS011;22296;50.824;5.644;2023-03-01T09:13:47;11.48;;;7.78;;
36259;SDS011;22296;50.824;5.644;2023-03-01T09:16:16;9.73;;;7.35;;
36259;SDS011;22296;50.824;5.644;2023-03-01T09:18:48;10.77;;;7.82;;
36259;SDS011;22296;50.824;5.644;2023-03-01T09:21:17;10.88;;;7.68;;
36259;SDS011;22296;50.824;5.644;2023-03-01T09:24:02;12.85;;;7.85;;
36259;SDS011;22296;50.824;5.644;2023-03-01T09:26:29;9.35;;;7.43;;
36259;SDS011;22296;50.824;5.644;2023-03-01T09:28:56;11.70;;;7.03;;
36259;SDS011;22296;50.824;5.644;2023-03-01T09:31:23;9.50;;;7.45;;
36259;SDS011;22296;50.824;5.644;2023-03-01T09:33:52;10.18;;;7.72;;
36259;SDS011;22296;50.824;5.644;2023-03-01T09:36:21;11.65;;;7.30;;
36259;SDS011;22296;50.824;5.644;2023-03-01T09:38:49;11.13;;;7.30;;
36259;SDS011;22296;50.824;5.644;2023-03-01T09:44:08;10.25;;;7.72;;
36259;SDS011;22296;50.824;5.644;2023-03-01T09:46:37;10.23;;;8.02;;
36259;SDS011;22296;50.824;5.644;2023-03-01T09:49:12;11.93;;;8.27;;
36259;SDS011;22296;50.824;5.644;2023-03-01T09:51:50;9.52;;;6.97;;
36259;SDS011;22296;50.824;5.644;2023-03-01T09:54:22;10.57;;;7.28;;
36259;SDS011;22296;50.824;5.644;2023-03-01T10:02:25;11.45;;;7.75;;
36259;SDS011;22296;50.824;5.644;2023-03-01T10:04:59;10.48;;;7.30;;
36259;SDS011;22296;50.824;5.644;2023-03-01T10:07:44;11.95;;;8.15;;
36259;SDS011;22296;50.824;5.644;2023-03-01T10:10:28;10.23;;;7.53;;
36259;SDS011;22296;50.824;5.644;2023-03-01T10:13:10;10.45;;;7.13;;
36259;SDS011;22296;50.824;5.644;2023-03-01T10:16:01;10.38;;;7.07;;
36259;SDS011;22296;50.824;5.644;2023-03-01T10:18:36;9.15;;;6.82;;
36259;SDS011;22296;50.824;5.644;2023-03-01T10:23:43;9.60;;;6.68;;
36259;SDS011;22296;50.824;5.644;2023-03-01T10:26:32;8.20;;;7.10;;
36259;SDS011;22296;50.824;5.644;2023-03-01T10:29:11;9.90;;;6.85;;
36259;SDS011;22296;50.824;5.644;2023-03-01T10:31:49;9.48;;;6.57;;
36259;SDS011;22296;50.824;5.644;2023-03-01T10:34:22;9.75;;;7.03;;
36259;SDS011;22296;50.824;5.644;2023-03-01T10:37:01;9.27;;;6.90;;
36259;SDS011;22296;50.824;5.644;2023-03-01T10:39:55;8.75;;;6.50;;
36259;SDS011;22296;50.824;5.644;2023-03-01T10:42:25;10.02;;;7.00;;
36259;SDS011;22296;50.824;5.644;2023-03-01T10:44:54;10.75;;;7.22;;
36259;SDS011;22296;50.824;5.644;2023-03-01T10:47:25;11.45;;;6.65;;
36259;SDS011;22296;50.824;5.644;2023-03-01T10:49:58;8.63;;;6.10;;
36259;SDS011;22296;50.824;5.644;2023-03-01T10:52:29;8.10;;;6.55;;
36259;SDS011;22296;50.824;5.644;2023-03-01T10:55:08;8.13;;;6.60;;
36259;SDS011;22296;50.824;5.644;2023-03-01T10:57:53;8.85;;;6.43;;
36259;SDS011;22296;50.824;5.644;2023-03-01T11:00:33;7.82;;;5.97;;
36259;SDS011;22296;50.824;5.644;2023-03-01T11:03:15;8.32;;;6.13;;
36259;SDS011;22296;50.824;5.644;2023-03-01T11:08:29;8.35;;;6.63;;
36259;SDS011;22296;50.824;5.644;2023-03-01T11:13:57;9.13;;;6.68;;
36259;SDS011;22296;50.824;5.644;2023-03-01T11:17:12;8.55;;;6.47;;
36259;SDS011;22296;50.824;5.644;2023-03-01T11:22:50;8.45;;;6.47;;
36259;SDS011;22296;50.824;5.644;2023-03-01T11:25:24;7.55;;;6.15;;
36259;SDS011;22296;50.824;5.644;2023-03-01T11:27:53;7.82;;;6.53;;
36259;SDS011;22296;50.824;5.644;2023-03-01T11:30:22;9.02;;;6.40;;
36259;SDS011;22296;50.824;5.644;2023-03-01T11:33:01;7.10;;;6.20;;
36259;SDS011;22296;50.824;5.644;2023-03-01T11:35:29;9.18;;;6.32;;
36259;SDS011;22296;50.824;5.644;2023-03-01T11:38:04;8.70;;;6.30;;
36259;SDS011;22296;50.824;5.644;2023-03-01T11:54:32;9.73;;;6.57;;
36259;SDS011;22296;50.824;5.644;2023-03-01T12:07:45;8.10;;;6.25;;
36259;SDS011;22296;50.824;5.644;2023-03-01T12:10:29;7.85;;;6.18;;
36259;SDS011;22296;50.824;5.644;2023-03-01T12:23:44;7.43;;;5.70;;
36259;SDS011;22296;50.824;5.644;2023-03-01T12:26:29;8.00;;;6.10;;
36259;SDS011;22296;50.824;5.644;2023-03-01T12:29:02;8.75;;;6.35;;
36259;SDS011;22296;50.824;5.644;2023-03-01T12:34:49;8.15;;;6.10;;
36259;SDS011;22296;50.824;5.644;2023-03-01T12:37:38;8.07;;;6.50;;
36259;SDS011;22296;50.824;5.644;2023-03-01T12:51:39;7.07;;;5.43;;
36259;SDS011;22296;50.824;5.644;2023-03-01T12:54:15;8.00;;;5.53;;
36259;SDS011;22296;50.824;5.644;2023-03-01T12:56:46;7.40;;;5.72;;
36259;SDS011;22296;50.824;5.644;2023-03-01T13:02:06;7.57;;;5.40;;
36259;SDS011;22296;50.824;5.644;2023-03-01T13:12:52;7.78;;;6.05;;
36259;SDS011;22296;50.824;5.644;2023-03-01T13:15:32;7.40;;;5.57;;
36259;SDS011;22296;50.824;5.644;2023-03-01T13:18:11;6.70;;;5.38;;
36259;SDS011;22296;50.824;5.644;2023-03-01T13:21:10;7.72;;;5.68;;
36259;SDS011;22296;50.824;5.644;2023-03-01T13:23:37;5.85;;;5.22;;
36259;SDS011;22296;50.824;5.644;2023-03-01T13:26:09;7.23;;;5.83;;
36259;SDS011;22296;50.824;5.644;2023-03-01T13:33:48;7.25;;;5.70;;
36259;SDS011;22296;50.824;5.644;2023-03-01T13:44:12;7.85;;;5.43;;
36259;SDS011;22296;50.824;5.644;2023-03-01T13:49:46;7.05;;;4.88;;
36259;SDS011;22296;50.824;5.644;2023-03-01T13:52:32;7.68;;;5.55;;
36259;SDS011;22296;50.824;5.644;2023-03-01T13:55:06;5.95;;;4.95;;
36259;SDS011;22296;50.824;5.644;2023-03-01T13:57:41;7.05;;;5.60;;
36259;SDS011;22296;50.824;5.644;2023-03-01T14:00:31;6.18;;;5.10;;
36259;SDS011;22296;50.824;5.644;2023-03-01T14:03:02;5.85;;;5.20;;
36259;SDS011;22296;50.824;5.644;2023-03-01T14:05:32;6.18;;;4.95;;
36259;SDS011;22296;50.824;5.644;2023-03-01T14:08:00;7.95;;;5.45;;
36259;SDS011;22296;50.824;5.644;2023-03-01T14:10:29;7.38;;;5.05;;
36259;SDS011;22296;50.824;5.644;2023-03-01T14:15:49;6.70;;;5.00;;
36259;SDS011;22296;50.824;5.644;2023-03-01T14:18:33;7.50;;;4.80;;
36259;SDS011;22296;50.824;5.644;2023-03-01T14:21:12;6.38;;;4.68;;
36259;SDS011;22296;50.824;5.644;2023-03-01T14:23:41;7.00;;;5.05;;
36259;SDS011;22296;50.824;5.644;2023-03-01T14:26:08;7.40;;;5.30;;
36259;SDS011;22296;50.824;5.644;2023-03-01T14:28:38;7.97;;;5.07;;
36259;SDS011;22296;50.824;5.644;2023-03-01T14:34:04;5.90;;;4.90;;
36259;SDS011;22296;50.824;5.644;2023-03-01T14:36:32;5.97;;;4.40;;
36259;SDS011;22296;50.824;5.644;2023-03-01T14:39:00;6.05;;;4.65;;
36259;SDS011;22296;50.824;5.644;2023-03-01T14:41:33;8.75;;;4.78;;
36259;SDS011;22296;50.824;5.644;2023-03-01T14:44:06;4.80;;;4.30;;
36259;SDS011;22296;50.824;5.644;2023-03-01T14:46:40;7.28;;;4.82;;
36259;SDS011;22296;50.824;5.644;2023-03-01T14:49:11;7.07;;;4.25;;
36259;SDS011;22296;50.824;5.644;2023-03-01T14:51:42;5.65;;;4.47;;
36259;SDS011;22296;50.824;5.644;2023-03-01T14:57:15;5.47;;;4.63;;
36259;SDS011;22296;50.824;5.644;2023-03-01T14:59:48;5.05;;;4.03;;
36259;SDS011;22296;50.824;5.644;2023-03-01T15:02:18;5.93;;;4.72;;
36259;SDS011;22296;50.824;5.644;2023-03-01T15:04:48;5.53;;;4.35;;
36259;SDS011;22296;50.824;5.644;2023-03-01T15:07:18;7.88;;;4.15;;
36259;SDS011;22296;50.824;5.644;2023-03-01T15:09:45;6.75;;;4.57;;
36259;SDS011;22296;50.824;5.644;2023-03-01T15:14:55;5.30;;;4.30;;
36259;SDS011;22296;50.824;5.644;2023-03-01T15:20:05;4.47;;;3.95;;
36259;SDS011;22296;50.824;5.644;2023-03-01T15:22:43;7.37;;;4.27;;
36259;SDS011;22296;50.824;5.644;2023-03-01T15:25:16;4.97;;;3.47;;
36259;SDS011;22296;50.824;5.644;2023-03-01T15:27:48;5.72;;;4.03;;
36259;SDS011;22296;50.824;5.644;2023-03-01T15:30:32;4.28;;;3.70;;
36259;SDS011;22296;50.824;5.644;2023-03-01T15:33:17;5.28;;;3.60;;
36259;SDS011;22296;50.824;5.644;2023-03-01T15:35:56;5.47;;;4.10;;
36259;SDS011;22296;50.824;5.644;2023-03-01T15:43:38;5.88;;;3.92;;
36259;SDS011;22296;50.824;5.644;2023-03-01T15:46:20;4.45;;;3.72;;
36259;SDS011;22296;50.824;5.644;2023-03-01T15:48:52;6.73;;;3.90;;
36259;SDS011;22296;50.824;5.644;2023-03-01T15:51:33;4.80;;;3.90;;
36259;SDS011;22296;50.824;5.644;2023-03-01T15:56:31;4.85;;;3.55;;
36259;SDS011;22296;50.824;5.644;2023-03-01T15:58:59;5.22;;;3.35;;
36259;SDS011;22296;50.824;5.644;2023-03-01T16:01:27;4.70;;;3.43;;
36259;SDS011;22296;50.824;5.644;2023-03-01T16:03:55;5.60;;;3.72;;
36259;SDS011;22296;50.824;5.644;2023-03-01T16:06:23;5.03;;;3.78;;
36259;SDS011;22296;50.824;5.644;2023-03-01T16:08:50;4.13;;;3.58;;
36259;SDS011;22296;50.824;5.644;2023-03-01T16:11:18;3.65;;;3.10;;
36259;SDS011;22296;50.824;5.644;2023-03-01T16:13:46;5.00;;;3.40;;
36259;SDS011;22296;50.824;5.644;2023-03-01T16:16:13;5.90;;;3.33;;
36259;SDS011;22296;50.824;5.644;2023-03-01T16:18:44;4.32;;;3.00;;
36259;SDS011;22296;50.824;5.644;2023-03-01T16:26:09;4.25;;;2.90;;
36259;SDS011;22296;50.824;5.644;2023-03-01T16:28:36;4.22;;;3.22;;
36259;SDS011;22296;50.824;5.644;2023-03-01T16:31:03;4.10;;;3.00;;
36259;SDS011;22296;50.824;5.644;2023-03-01T16:33:31;4.38;;;3.20;;
36259;SDS011;22296;50.824;5.644;2023-03-01T16:36:00;5.50;;;3.60;;
36259;SDS011;22296;50.824;5.644;2023-03-01T16:38:32;4.03;;;2.80;;
36259;SDS011;22296;50.824;5.644;2023-03-01T16:40:59;4.25;;;3.30;;
36259;SDS011;22296;50.824;5.644;2023-03-01T16:43:26;4.15;;;2.88;;
36259;SDS011;22296;50.824;5.644;2023-03-01T16:45:53;4.43;;;3.10;;
36259;SDS011;22296;50.824;5.644;2023-03-01T16:48:20;4.57;;;3.22;;
36259;SDS011;22296;50.824;5.644;2023-03-01T16:50:55;4.00;;;2.80;;
36259;SDS011;22296;50.824;5.644;2023-03-01T16:53:23;3.83;;;2.75;;
36259;SDS011;22296;50.824;5.644;2023-03-01T16:56:09;4.22;;;2.90;;
36259;SDS011;22296;50.824;5.644;2023-03-01T16:58:37;3.20;;;2.85;;
36259;SDS011;22296;50.824;5.644;2023-03-01T17:01:13;3.72;;;2.85;;
36259;SDS011;22296;50.824;5.644;2023-03-01T17:03:45;3.63;;;2.70;;
36259;SDS011;22296;50.824;5.644;2023-03-01T17:06:15;3.40;;;2.90;;
36259;SDS011;22296;50.824;5.644;2023-03-01T17:08:43;4.05;;;2.70;;
36259;SDS011;22296;50.824;5.644;2023-03-01T17:11:11;3.05;;;2.72;;
36259;SDS011;22296;50.824;5.644;2023-03-01T17:13:40;4.47;;;2.97;;
36259;SDS011;22296;50.824;5.644;2023-03-01T17:16:08;4.75;;;2.58;;
36259;SDS011;22296;50.824;5.644;2023-03-01T17:18:37;3.75;;;2.90;;
36259;SDS011;22296;50.824;5.644;2023-03-01T17:21:05;4.05;;;2.67;;